sensor_id;sensor_type;location;lat;lon;timestamp;P1;durP1;ratioP1;P2;durP2;ratioP2
6499;SDS011;3283;52.330;9.772;2023-06-22T04:03:23;624.77;;;378.33;;
6499;SDS011;3283;52.330;9.772;2023-06-22T04:05:49;631.17;;;442.50;;
6499;SDS011;3283;52.330;9.772;2023-06-22T04:08:14;634.40;;;458.87;;
6499;SDS011;3283;52.330;9.772;2023-06-22T04:10:39;673.63;;;518.07;;
6499;SDS011;3283;52.330;9.772;2023-06-22T04:13:05;645.13;;;490.03;;
6499;SDS011;3283;52.330;9.772;2023-06-22T04:15:30;637.97;;;452.80;;
6499;SDS011;3283;52.330;9.772;2023-06-22T04:17:56;639.53;;;464.43;;
6499;SDS011;3283;52.330;9.772;2023-06-22T04:20:22;648.20;;;513.23;;
6499;SDS011;3283;52.330;9.772;2023-06-22T04:22:47;657.77;;;525.03;;
6499;SDS011;3283;52.330;9.772;2023-06-22T04:25:12;641.30;;;481.63;;
6499;SDS011;3283;52.330;9.772;2023-06-22T04:27:37;669.03;;;554.87;;
6499;SDS011;3283;52.330;9.772;2023-06-22T04:30:05;654.37;;;527.27;;
6499;SDS011;3283;52.330;9.772;2023-06-22T04:32:32;644.70;;;497.50;;
6499;SDS011;3283;52.330;9.772;2023-06-22T04:34:57;660.73;;;546.20;;
6499;SDS011;3283;52.330;9.772;2023-06-22T04:37:23;654.07;;;539.30;;
6499;SDS011;3283;52.330;9.772;2023-06-22T04:39:49;655.20;;;548.90;;
6499;SDS011;3283;52.330;9.772;2023-06-22T04:42:15;650.30;;;532.20;;
6499;SDS011;3283;52.330;9.772;2023-06-22T04:44:40;653.33;;;542.67;;
6499;SDS011;3283;52.330;9.772;2023-06-22T04:47:06;654.50;;;522.90;;
6499;SDS011;3283;52.330;9.772;2023-06-22T04:49:33;650.10;;;502.77;;
6499;SDS011;3283;52.330;9.772;2023-06-22T04:52:05;659.23;;;543.27;;
6499;SDS011;3283;52.330;9.772;2023-06-22T04:54:31;652.97;;;532.63;;
6499;SDS011;3283;52.330;9.772;2023-06-22T04:57:00;659.23;;;540.13;;
6499;SDS011;3283;52.330;9.772;2023-06-22T04:59:27;667.80;;;585.90;;
6499;SDS011;3283;52.330;9.772;2023-06-22T05:01:55;654.37;;;569.87;;
6499;SDS011;3283;52.330;9.772;2023-06-22T05:04:21;655.90;;;576.23;;
6499;SDS011;3283;52.330;9.772;2023-06-22T05:06:51;651.33;;;532.97;;
6499;SDS011;3283;52.330;9.772;2023-06-22T05:09:17;655.60;;;570.87;;
6499;SDS011;3283;52.330;9.772;2023-06-22T05:11:43;653.73;;;542.07;;
6499;SDS011;3283;52.330;9.772;2023-06-22T05:14:09;663.90;;;551.17;;
6499;SDS011;3283;52.330;9.772;2023-06-22T05:16:34;661.37;;;557.70;;
6499;SDS011;3283;52.330;9.772;2023-06-22T05:19:00;649.30;;;548.10;;
6499;SDS011;3283;52.330;9.772;2023-06-22T05:21:28;656.77;;;552.63;;
6499;SDS011;3283;52.330;9.772;2023-06-22T05:23:53;659.10;;;566.40;;
6499;SDS011;3283;52.330;9.772;2023-06-22T05:26:20;655.70;;;573.40;;
6499;SDS011;3283;52.330;9.772;2023-06-22T05:28:46;655.83;;;579.90;;
6499;SDS011;3283;52.330;9.772;2023-06-22T05:31:15;652.93;;;556.50;;
6499;SDS011;3283;52.330;9.772;2023-06-22T05:33:41;687.47;;;613.60;;
6499;SDS011;3283;52.330;9.772;2023-06-22T05:36:08;654.00;;;568.00;;
6499;SDS011;3283;52.330;9.772;2023-06-22T05:38:34;685.50;;;612.03;;
6499;SDS011;3283;52.330;9.772;2023-06-22T05:40:59;690.93;;;616.57;;
6499;SDS011;3283;52.330;9.772;2023-06-22T05:43:25;687.33;;;612.87;;
6499;SDS011;3283;52.330;9.772;2023-06-22T05:45:50;649.83;;;570.57;;
6499;SDS011;3283;52.330;9.772;2023-06-22T05:48:15;655.70;;;563.57;;
6499;SDS011;3283;52.330;9.772;2023-06-22T05:50:41;654.23;;;567.33;;
6499;SDS011;3283;52.330;9.772;2023-06-22T05:53:07;676.67;;;603.17;;
6499;SDS011;3283;52.330;9.772;2023-06-22T05:55:32;654.47;;;561.27;;
6499;SDS011;3283;52.330;9.772;2023-06-22T05:57:58;657.67;;;581.80;;
6499;SDS011;3283;52.330;9.772;2023-06-22T06:00:23;654.73;;;575.93;;
6499;SDS011;3283;52.330;9.772;2023-06-22T06:02:49;691.07;;;617.23;;
6499;SDS011;3283;52.330;9.772;2023-06-22T06:05:14;657.77;;;580.60;;
6499;SDS011;3283;52.330;9.772;2023-06-22T06:07:40;705.60;;;630.70;;
6499;SDS011;3283;52.330;9.772;2023-06-22T06:10:06;700.07;;;626.00;;
6499;SDS011;3283;52.330;9.772;2023-06-22T06:12:32;666.47;;;593.47;;
6499;SDS011;3283;52.330;9.772;2023-06-22T06:14:57;712.63;;;638.67;;
6499;SDS011;3283;52.330;9.772;2023-06-22T06:17:23;661.17;;;585.53;;
6499;SDS011;3283;52.330;9.772;2023-06-22T06:19:48;659.13;;;584.83;;
6499;SDS011;3283;52.330;9.772;2023-06-22T06:22:13;661.13;;;587.87;;
6499;SDS011;3283;52.330;9.772;2023-06-22T06:24:39;691.10;;;617.30;;
6499;SDS011;3283;52.330;9.772;2023-06-22T06:27:04;710.13;;;635.60;;
6499;SDS011;3283;52.330;9.772;2023-06-22T06:29:30;681.30;;;607.17;;
6499;SDS011;3283;52.330;9.772;2023-06-22T06:31:55;684.87;;;610.87;;
6499;SDS011;3283;52.330;9.772;2023-06-22T06:34:21;692.87;;;619.07;;
6499;SDS011;3283;52.330;9.772;2023-06-22T06:36:47;737.73;;;663.23;;
6499;SDS011;3283;52.330;9.772;2023-06-22T06:39:12;683.50;;;610.20;;
6499;SDS011;3283;52.330;9.772;2023-06-22T06:41:38;732.43;;;657.87;;
6499;SDS011;3283;52.330;9.772;2023-06-22T06:44:03;719.87;;;646.27;;
6499;SDS011;3283;52.330;9.772;2023-06-22T06:46:28;723.83;;;649.37;;
6499;SDS011;3283;52.330;9.772;2023-06-22T06:48:54;713.53;;;639.67;;
6499;SDS011;3283;52.330;9.772;2023-06-22T06:51:19;701.43;;;627.20;;
6499;SDS011;3283;52.330;9.772;2023-06-22T06:53:44;699.13;;;625.97;;
6499;SDS011;3283;52.330;9.772;2023-06-22T06:56:10;711.87;;;637.87;;
6499;SDS011;3283;52.330;9.772;2023-06-22T06:58:35;726.50;;;652.70;;
6499;SDS011;3283;52.330;9.772;2023-06-22T07:01:01;736.03;;;661.53;;
6499;SDS011;3283;52.330;9.772;2023-06-22T07:03:28;714.17;;;639.90;;
6499;SDS011;3283;52.330;9.772;2023-06-22T07:05:53;715.30;;;641.80;;
6499;SDS011;3283;52.330;9.772;2023-06-22T07:08:19;720.07;;;646.10;;
6499;SDS011;3283;52.330;9.772;2023-06-22T07:10:44;742.77;;;668.27;;
6499;SDS011;3283;52.330;9.772;2023-06-22T07:13:09;721.27;;;646.60;;
6499;SDS011;3283;52.330;9.772;2023-06-22T07:15:35;712.77;;;638.70;;
6499;SDS011;3283;52.330;9.772;2023-06-22T07:18:00;766.80;;;691.63;;
6499;SDS011;3283;52.330;9.772;2023-06-22T07:20:25;758.73;;;683.63;;
6499;SDS011;3283;52.330;9.772;2023-06-22T07:22:51;714.10;;;640.47;;
6499;SDS011;3283;52.330;9.772;2023-06-22T07:25:16;712.33;;;638.10;;
6499;SDS011;3283;52.330;9.772;2023-06-22T07:27:46;740.40;;;665.23;;
6499;SDS011;3283;52.330;9.772;2023-06-22T07:30:22;736.23;;;661.50;;
6499;SDS011;3283;52.330;9.772;2023-06-22T07:32:48;729.23;;;654.47;;
6499;SDS011;3283;52.330;9.772;2023-06-22T07:35:13;744.53;;;670.27;;
6499;SDS011;3283;52.330;9.772;2023-06-22T07:37:39;753.07;;;676.73;;
6499;SDS011;3283;52.330;9.772;2023-06-22T07:40:04;736.07;;;661.17;;
6499;SDS011;3283;52.330;9.772;2023-06-22T07:42:31;727.97;;;652.77;;
6499;SDS011;3283;52.330;9.772;2023-06-22T07:44:57;775.97;;;700.60;;
6499;SDS011;3283;52.330;9.772;2023-06-22T07:47:23;721.87;;;647.63;;
6499;SDS011;3283;52.330;9.772;2023-06-22T07:49:51;778.47;;;703.07;;
6499;SDS011;3283;52.330;9.772;2023-06-22T07:52:17;730.07;;;655.57;;
6499;SDS011;3283;52.330;9.772;2023-06-22T07:54:42;727.93;;;653.17;;
6499;SDS011;3283;52.330;9.772;2023-06-22T07:57:08;733.40;;;657.80;;
6499;SDS011;3283;52.330;9.772;2023-06-22T07:59:33;730.23;;;655.50;;
6499;SDS011;3283;52.330;9.772;2023-06-22T08:01:58;766.23;;;690.57;;
6499;SDS011;3283;52.330;9.772;2023-06-22T08:04:24;745.27;;;670.27;;
6499;SDS011;3283;52.330;9.772;2023-06-22T08:06:49;769.00;;;693.23;;
6499;SDS011;3283;52.330;9.772;2023-06-22T08:09:14;760.33;;;684.93;;
6499;SDS011;3283;52.330;9.772;2023-06-22T08:11:40;759.53;;;684.13;;
6499;SDS011;3283;52.330;9.772;2023-06-22T08:14:05;818.87;;;741.80;;
6499;SDS011;3283;52.330;9.772;2023-06-22T08:16:30;775.50;;;699.23;;
6499;SDS011;3283;52.330;9.772;2023-06-22T08:18:56;837.00;;;759.50;;
6499;SDS011;3283;52.330;9.772;2023-06-22T08:21:21;798.40;;;721.80;;
6499;SDS011;3283;52.330;9.772;2023-06-22T08:23:47;834.00;;;756.50;;
6499;SDS011;3283;52.330;9.772;2023-06-22T08:26:14;821.93;;;744.67;;
6499;SDS011;3283;52.330;9.772;2023-06-22T08:28:39;856.27;;;777.97;;
6499;SDS011;3283;52.330;9.772;2023-06-22T08:31:04;856.97;;;778.83;;
6499;SDS011;3283;52.330;9.772;2023-06-22T08:33:30;806.37;;;730.03;;
6499;SDS011;3283;52.330;9.772;2023-06-22T08:35:56;825.33;;;748.27;;
6499;SDS011;3283;52.330;9.772;2023-06-22T08:38:22;859.33;;;781.23;;
6499;SDS011;3283;52.330;9.772;2023-06-22T08:40:48;834.47;;;757.30;;
6499;SDS011;3283;52.330;9.772;2023-06-22T08:43:13;827.50;;;750.73;;
6499;SDS011;3283;52.330;9.772;2023-06-22T08:45:39;859.20;;;781.60;;
6499;SDS011;3283;52.330;9.772;2023-06-22T08:48:05;864.80;;;786.53;;
6499;SDS011;3283;52.330;9.772;2023-06-22T08:50:30;820.47;;;743.57;;
6499;SDS011;3283;52.330;9.772;2023-06-22T08:52:55;860.80;;;782.90;;
6499;SDS011;3283;52.330;9.772;2023-06-22T08:55:21;868.07;;;789.77;;
6499;SDS011;3283;52.330;9.772;2023-06-22T08:57:46;818.13;;;742.00;;
6499;SDS011;3283;52.330;9.772;2023-06-22T09:00:11;862.63;;;784.73;;
6499;SDS011;3283;52.330;9.772;2023-06-22T09:02:42;825.47;;;748.97;;
6499;SDS011;3283;52.330;9.772;2023-06-22T09:05:12;856.87;;;779.23;;
6499;SDS011;3283;52.330;9.772;2023-06-22T09:07:38;864.50;;;786.20;;
6499;SDS011;3283;52.330;9.772;2023-06-22T09:10:03;840.97;;;763.67;;
6499;SDS011;3283;52.330;9.772;2023-06-22T09:12:30;850.17;;;772.17;;
6499;SDS011;3283;52.330;9.772;2023-06-22T09:14:56;839.63;;;762.53;;
6499;SDS011;3283;52.330;9.772;2023-06-22T09:17:22;848.40;;;770.17;;
6499;SDS011;3283;52.330;9.772;2023-06-22T09:19:47;824.33;;;747.13;;
6499;SDS011;3283;52.330;9.772;2023-06-22T09:22:13;890.83;;;810.73;;
6499;SDS011;3283;52.330;9.772;2023-06-22T09:24:39;899.47;;;820.37;;
6499;SDS011;3283;52.330;9.772;2023-06-22T09:27:05;878.10;;;799.13;;
6499;SDS011;3283;52.330;9.772;2023-06-22T09:29:30;902.73;;;823.37;;
6499;SDS011;3283;52.330;9.772;2023-06-22T09:31:58;904.00;;;824.80;;
6499;SDS011;3283;52.330;9.772;2023-06-22T09:34:24;913.37;;;833.47;;
6499;SDS011;3283;52.330;9.772;2023-06-22T09:36:49;915.10;;;835.57;;
6499;SDS011;3283;52.330;9.772;2023-06-22T09:39:14;907.00;;;827.73;;
6499;SDS011;3283;52.330;9.772;2023-06-22T09:41:40;915.00;;;834.93;;
6499;SDS011;3283;52.330;9.772;2023-06-22T09:44:05;886.63;;;808.13;;
6499;SDS011;3283;52.330;9.772;2023-06-22T09:46:30;881.03;;;802.83;;
6499;SDS011;3283;52.330;9.772;2023-06-22T09:48:56;895.03;;;815.97;;
6499;SDS011;3283;52.330;9.772;2023-06-22T09:51:21;919.63;;;839.77;;
6499;SDS011;3283;52.330;9.772;2023-06-22T09:53:48;902.07;;;822.03;;
6499;SDS011;3283;52.330;9.772;2023-06-22T09:56:14;896.50;;;816.50;;
6499;SDS011;3283;52.330;9.772;2023-06-22T09:58:43;924.13;;;843.23;;
6499;SDS011;3283;52.330;9.772;2023-06-22T10:01:09;894.37;;;814.97;;
6499;SDS011;3283;52.330;9.772;2023-06-22T10:03:35;919.43;;;839.33;;
6499;SDS011;3283;52.330;9.772;2023-06-22T10:06:01;912.00;;;832.80;;
6499;SDS011;3283;52.330;9.772;2023-06-22T10:08:26;943.57;;;863.27;;
6499;SDS011;3283;52.330;9.772;2023-06-22T10:10:52;929.03;;;848.53;;
6499;SDS011;3283;52.330;9.772;2023-06-22T10:13:17;921.80;;;841.40;;
6499;SDS011;3283;52.330;9.772;2023-06-22T10:15:43;915.87;;;835.70;;
6499;SDS011;3283;52.330;9.772;2023-06-22T10:18:14;931.50;;;851.20;;
6499;SDS011;3283;52.330;9.772;2023-06-22T10:20:40;915.23;;;835.87;;
6499;SDS011;3283;52.330;9.772;2023-06-22T10:23:05;897.53;;;817.83;;
6499;SDS011;3283;52.330;9.772;2023-06-22T10:25:30;917.17;;;836.87;;
6499;SDS011;3283;52.330;9.772;2023-06-22T10:27:56;886.70;;;807.50;;
6499;SDS011;3283;52.330;9.772;2023-06-22T10:30:22;910.50;;;830.93;;
6499;SDS011;3283;52.330;9.772;2023-06-22T10:32:48;916.07;;;835.53;;
6499;SDS011;3283;52.330;9.772;2023-06-22T10:35:14;913.23;;;833.53;;
6499;SDS011;3283;52.330;9.772;2023-06-22T10:37:41;908.03;;;827.13;;
6499;SDS011;3283;52.330;9.772;2023-06-22T10:40:11;901.07;;;821.83;;
6499;SDS011;3283;52.330;9.772;2023-06-22T10:42:40;906.70;;;826.80;;
6499;SDS011;3283;52.330;9.772;2023-06-22T10:45:06;893.37;;;813.17;;
6499;SDS011;3283;52.330;9.772;2023-06-22T10:47:33;889.03;;;809.27;;
6499;SDS011;3283;52.330;9.772;2023-06-22T10:49:58;895.87;;;816.47;;
6499;SDS011;3283;52.330;9.772;2023-06-22T10:52:24;896.60;;;816.50;;
6499;SDS011;3283;52.330;9.772;2023-06-22T10:54:49;918.37;;;837.97;;
6499;SDS011;3283;52.330;9.772;2023-06-22T10:57:14;947.90;;;866.43;;
6499;SDS011;3283;52.330;9.772;2023-06-22T10:59:40;928.43;;;848.13;;
6499;SDS011;3283;52.330;9.772;2023-06-22T11:02:05;945.93;;;865.03;;
6499;SDS011;3283;52.330;9.772;2023-06-22T11:04:31;931.90;;;851.70;;
6499;SDS011;3283;52.330;9.772;2023-06-22T11:06:56;947.13;;;866.13;;
6499;SDS011;3283;52.330;9.772;2023-06-22T11:09:21;955.43;;;874.57;;
6499;SDS011;3283;52.330;9.772;2023-06-22T11:11:47;953.67;;;872.70;;
6499;SDS011;3283;52.330;9.772;2023-06-22T11:14:13;930.20;;;850.20;;
6499;SDS011;3283;52.330;9.772;2023-06-22T11:16:38;962.67;;;881.53;;
6499;SDS011;3283;52.330;9.772;2023-06-22T11:19:04;926.67;;;846.77;;
6499;SDS011;3283;52.330;9.772;2023-06-22T11:21:30;934.53;;;853.83;;
6499;SDS011;3283;52.330;9.772;2023-06-22T11:23:56;936.57;;;856.30;;
6499;SDS011;3283;52.330;9.772;2023-06-22T11:26:22;914.97;;;834.97;;
6499;SDS011;3283;52.330;9.772;2023-06-22T11:28:47;933.73;;;853.10;;
6499;SDS011;3283;52.330;9.772;2023-06-22T11:31:12;944.47;;;863.27;;
6499;SDS011;3283;52.330;9.772;2023-06-22T11:33:38;904.17;;;824.27;;
6499;SDS011;3283;52.330;9.772;2023-06-22T11:36:03;939.97;;;858.87;;
6499;SDS011;3283;52.330;9.772;2023-06-22T11:38:29;904.50;;;825.10;;
6499;SDS011;3283;52.330;9.772;2023-06-22T11:40:57;907.93;;;828.47;;
6499;SDS011;3283;52.330;9.772;2023-06-22T11:43:23;960.10;;;875.93;;
6499;SDS011;3283;52.330;9.772;2023-06-22T11:45:48;931.10;;;848.30;;
6499;SDS011;3283;52.330;9.772;2023-06-22T11:48:13;919.80;;;839.70;;
6499;SDS011;3283;52.330;9.772;2023-06-22T11:50:39;959.67;;;878.53;;
6499;SDS011;3283;52.330;9.772;2023-06-22T11:53:04;959.53;;;878.23;;
6499;SDS011;3283;52.330;9.772;2023-06-22T11:55:29;937.50;;;856.83;;
6499;SDS011;3283;52.330;9.772;2023-06-22T11:57:55;922.33;;;842.17;;
6499;SDS011;3283;52.330;9.772;2023-06-22T12:00:23;920.83;;;839.67;;
6499;SDS011;3283;52.330;9.772;2023-06-22T12:02:49;941.63;;;861.53;;
6499;SDS011;3283;52.330;9.772;2023-06-22T12:05:17;933.40;;;853.33;;
6499;SDS011;3283;52.330;9.772;2023-06-22T12:07:44;952.90;;;870.93;;
6499;SDS011;3283;52.330;9.772;2023-06-22T12:10:09;942.73;;;862.23;;
6499;SDS011;3283;52.330;9.772;2023-06-22T12:12:35;920.10;;;840.43;;
6499;SDS011;3283;52.330;9.772;2023-06-22T12:15:00;950.00;;;869.13;;
6499;SDS011;3283;52.330;9.772;2023-06-22T12:17:28;932.90;;;850.73;;
6499;SDS011;3283;52.330;9.772;2023-06-22T12:19:54;939.20;;;858.93;;
6499;SDS011;3283;52.330;9.772;2023-06-22T12:22:19;945.70;;;865.23;;
6499;SDS011;3283;52.330;9.772;2023-06-22T12:24:44;928.83;;;848.77;;
6499;SDS011;3283;52.330;9.772;2023-06-22T12:27:10;934.23;;;853.07;;
6499;SDS011;3283;52.330;9.772;2023-06-22T12:29:35;936.57;;;856.00;;
6499;SDS011;3283;52.330;9.772;2023-06-22T12:32:00;959.10;;;877.60;;
6499;SDS011;3283;52.330;9.772;2023-06-22T12:34:26;938.93;;;858.00;;
6499;SDS011;3283;52.330;9.772;2023-06-22T12:36:51;961.83;;;880.53;;
6499;SDS011;3283;52.330;9.772;2023-06-22T12:39:19;952.33;;;871.33;;
6499;SDS011;3283;52.330;9.772;2023-06-22T12:41:44;967.67;;;885.40;;
6499;SDS011;3283;52.330;9.772;2023-06-22T12:44:09;939.40;;;858.53;;
6499;SDS011;3283;52.330;9.772;2023-06-22T12:46:35;942.10;;;861.13;;
6499;SDS011;3283;52.330;9.772;2023-06-22T12:49:02;967.13;;;885.27;;
6499;SDS011;3283;52.330;9.772;2023-06-22T12:51:29;940.20;;;859.80;;
6499;SDS011;3283;52.330;9.772;2023-06-22T12:53:55;964.37;;;882.90;;
6499;SDS011;3283;52.330;9.772;2023-06-22T12:56:20;948.33;;;867.40;;
6499;SDS011;3283;52.330;9.772;2023-06-22T12:58:46;969.47;;;888.13;;
6499;SDS011;3283;52.330;9.772;2023-06-22T13:01:11;938.90;;;858.83;;
6499;SDS011;3283;52.330;9.772;2023-06-22T13:03:36;934.83;;;854.33;;
6499;SDS011;3283;52.330;9.772;2023-06-22T13:06:02;952.93;;;871.73;;
6499;SDS011;3283;52.330;9.772;2023-06-22T13:08:28;927.27;;;846.47;;
6499;SDS011;3283;52.330;9.772;2023-06-22T13:10:54;918.17;;;837.40;;
6499;SDS011;3283;52.330;9.772;2023-06-22T13:13:21;924.97;;;845.00;;
6499;SDS011;3283;52.330;9.772;2023-06-22T13:15:49;943.10;;;861.63;;
6499;SDS011;3283;52.330;9.772;2023-06-22T13:18:15;937.37;;;856.27;;
6499;SDS011;3283;52.330;9.772;2023-06-22T13:20:40;903.00;;;823.17;;
6499;SDS011;3283;52.330;9.772;2023-06-22T13:23:06;926.10;;;845.70;;
6499;SDS011;3283;52.330;9.772;2023-06-22T13:25:31;915.80;;;835.53;;
6499;SDS011;3283;52.330;9.772;2023-06-22T13:27:56;919.60;;;839.33;;
6499;SDS011;3283;52.330;9.772;2023-06-22T13:30:22;906.37;;;826.10;;
6499;SDS011;3283;52.330;9.772;2023-06-22T13:32:47;911.20;;;831.33;;
6499;SDS011;3283;52.330;9.772;2023-06-22T13:35:12;893.20;;;813.93;;
6499;SDS011;3283;52.330;9.772;2023-06-22T13:37:38;933.53;;;852.07;;
6499;SDS011;3283;52.330;9.772;2023-06-22T13:40:04;925.60;;;845.73;;
6499;SDS011;3283;52.330;9.772;2023-06-22T13:42:33;936.87;;;856.17;;
6499;SDS011;3283;52.330;9.772;2023-06-22T13:44:58;902.23;;;822.53;;
6499;SDS011;3283;52.330;9.772;2023-06-22T13:47:24;928.27;;;847.50;;
6499;SDS011;3283;52.330;9.772;2023-06-22T13:49:49;919.37;;;839.57;;
6499;SDS011;3283;52.330;9.772;2023-06-22T13:52:15;916.70;;;837.20;;
6499;SDS011;3283;52.330;9.772;2023-06-22T13:54:40;900.30;;;820.53;;
6499;SDS011;3283;52.330;9.772;2023-06-22T13:57:06;917.67;;;837.60;;
6499;SDS011;3283;52.330;9.772;2023-06-22T13:59:31;902.37;;;822.90;;
6499;SDS011;3283;52.330;9.772;2023-06-22T14:01:57;926.43;;;846.43;;
6499;SDS011;3283;52.330;9.772;2023-06-22T14:04:25;917.43;;;836.93;;
6499;SDS011;3283;52.330;9.772;2023-06-22T14:06:50;890.13;;;810.13;;
6499;SDS011;3283;52.330;9.772;2023-06-22T14:09:16;884.73;;;804.80;;
6499;SDS011;3283;52.330;9.772;2023-06-22T14:11:41;885.90;;;805.93;;
6499;SDS011;3283;52.330;9.772;2023-06-22T14:14:06;893.63;;;813.03;;
6499;SDS011;3283;52.330;9.772;2023-06-22T14:16:32;846.97;;;768.03;;
6499;SDS011;3283;52.330;9.772;2023-06-22T14:18:57;861.30;;;782.73;;
6499;SDS011;3283;52.330;9.772;2023-06-22T14:21:22;866.77;;;785.97;;
6499;SDS011;3283;52.330;9.772;2023-06-22T14:23:48;859.10;;;780.27;;
6499;SDS011;3283;52.330;9.772;2023-06-22T14:26:17;834.03;;;756.37;;
6499;SDS011;3283;52.330;9.772;2023-06-22T14:28:46;834.23;;;755.83;;
6499;SDS011;3283;52.330;9.772;2023-06-22T14:31:16;836.73;;;758.70;;
6499;SDS011;3283;52.330;9.772;2023-06-22T14:33:44;806.03;;;728.13;;
6499;SDS011;3283;52.330;9.772;2023-06-22T14:36:11;805.47;;;728.30;;
6499;SDS011;3283;52.330;9.772;2023-06-22T14:38:36;853.63;;;775.30;;
6499;SDS011;3283;52.330;9.772;2023-06-22T14:41:02;846.20;;;767.63;;
6499;SDS011;3283;52.330;9.772;2023-06-22T14:43:27;853.30;;;773.83;;
6499;SDS011;3283;52.330;9.772;2023-06-22T14:45:52;833.27;;;755.57;;
6499;SDS011;3283;52.330;9.772;2023-06-22T14:48:18;827.60;;;749.07;;
6499;SDS011;3283;52.330;9.772;2023-06-22T14:50:43;806.43;;;728.67;;
6499;SDS011;3283;52.330;9.772;2023-06-22T14:53:08;824.33;;;745.53;;
6499;SDS011;3283;52.330;9.772;2023-06-22T14:55:34;800.90;;;722.97;;
6499;SDS011;3283;52.330;9.772;2023-06-22T14:57:59;791.33;;;713.93;;
6499;SDS011;3283;52.330;9.772;2023-06-22T15:00:25;823.73;;;745.87;;
6499;SDS011;3283;52.330;9.772;2023-06-22T15:02:50;830.30;;;751.87;;
6499;SDS011;3283;52.330;9.772;2023-06-22T15:05:16;824.37;;;746.30;;
6499;SDS011;3283;52.330;9.772;2023-06-22T15:30:45;618.17;;;452.23;;
6499;SDS011;3283;52.330;9.772;2023-06-22T15:33:10;620.10;;;481.37;;
6499;SDS011;3283;52.330;9.772;2023-06-22T15:35:35;619.87;;;498.27;;
6499;SDS011;3283;52.330;9.772;2023-06-22T15:38:00;617.30;;;487.37;;
6499;SDS011;3283;52.330;9.772;2023-06-22T15:40:26;631.87;;;517.90;;
6499;SDS011;3283;52.330;9.772;2023-06-22T15:42:52;634.87;;;495.37;;
6499;SDS011;3283;52.330;9.772;2023-06-22T15:45:17;639.20;;;518.43;;
6499;SDS011;3283;52.330;9.772;2023-06-22T15:47:42;640.83;;;546.63;;
6499;SDS011;3283;52.330;9.772;2023-06-22T15:50:07;641.30;;;545.13;;
6499;SDS011;3283;52.330;9.772;2023-06-22T15:52:33;653.47;;;578.63;;
6499;SDS011;3283;52.330;9.772;2023-06-22T15:54:58;635.70;;;523.50;;
6499;SDS011;3283;52.330;9.772;2023-06-22T15:57:25;646.83;;;571.53;;
6499;SDS011;3283;52.330;9.772;2023-06-22T15:59:51;649.33;;;564.63;;
6499;SDS011;3283;52.330;9.772;2023-06-22T16:02:16;652.03;;;566.90;;
6499;SDS011;3283;52.330;9.772;2023-06-22T16:04:41;636.70;;;519.60;;
6499;SDS011;3283;52.330;9.772;2023-06-22T16:07:07;649.63;;;578.37;;
6499;SDS011;3283;52.330;9.772;2023-06-22T16:09:32;635.53;;;525.10;;
6499;SDS011;3283;52.330;9.772;2023-06-22T16:11:57;647.50;;;573.33;;
